Mount Gilead, OH

6:19 PM EST on March 03, 2015 (GMT -0500)
Shauck - OH 314 at US 42 | Change Station
CLOSE
Current Station
Personal Weather Station
Location: Mount Gilead, OH
Elevation: 1365 ft
Nearby Weather Stations

Elev 1365 ft 40.62 °N, 82.66 °W | Updated 29 seconds ago

Overcast
Overcast
40.1 °F
Feels Like 34 °F
N
9.8
Wind Variable Wind from SW
Gusts 15.0 mph

Today
High -- | Low -- °F
--% Chance of Precip.
Yesterday
High -- | Low -- °F
Precip. -- in
7:02 AM 6:24 PM
Waxing Gibbous, 97% visible
Pressure 29.71 in
Visibility 1.2 miles
Clouds Overcast 300 ft
Windchill 34 °F
Dew Point 40 °F
Humidity 99%
Rainfall 0.13 in
Snow Depth Not available.
UV 0 out of 12
Pollen .50 out of 12
Air Quality Not available.
Flu Activity Not available.
SPECI KMNN 032312Z AUTO 23012KT 1 1/4SM BR OVC003 04/03 A2971 RMK AO2 CIG 003V007 T00390028 TSNO

More Conditions Fewer Conditions

Pressure 29.71 in
Visibility 1.2 miles
Clouds Overcast 300 ft
Windchill 34 °F
Dew Point 40 °F
Humidity 99%
Rainfall 0.13 in
Snow Depth Not available.
UV 0 out of 12
Pollen .50 out of 12
Air Quality Not available.
Flu Activity Not available.
SPECI KMNN 032312Z AUTO 23012KT 1 1/4SM BR OVC003 04/03 A2971 RMK AO2 CIG 003V007 T00390028 TSNO

More Conditions Fewer Conditions

10-Day Weather Forecast

Almanac

Astronomy

Mar. 03, 2015 Rise Set
Actual Time
Civil Twilight
Nautical Twilight
Astronomical Twilight
Moon
Length of Visible Light
Length of Day
Tomorrow will be .
, % of the Moon is Illuminated

Today's Extremes

State Highs State Lows

Community

WunderPhotos

Upload Photos

1,802,301 photos uploaded!

WunderBlogs® & News

Nearby

Air Quality

  Air Quality AQ Index Pollutant
Not available.

Snow Depth

Station Depth Elevation

Earthquake Activity

City Distance Mag. Time & Date
Minimum magnitude displayed is 2.5.

Coastal Water Temperatures

Place Temperature

Nearby Weather Stations